Time;durP1;ratioP1;P1;durP2;ratioP2;P2;SDS_P1;SDS_P2;PMS_P1;PMS_P2;Temp;Humidity;BMP_temperature;BMP_pressure;BME280_temperature;BME280_humidity;BME280_pressure;Samples;Min_cycle;Max_cycle;Signal;HPM_P1;HPM_P2
2022/03/27 00:00:16;;;;;;;26.52;16.23;;;;;;;6.35;70.12;101025.53;5010090;28;20045;-65
2022/03/27 00:02:42;;;;;;;27.95;15.35;;;;;;;6.35;69.80;101036.00;5010737;28;20030;-65
2022/03/27 00:05:09;;;;;;;28.20;19.27;;;;;;;6.32;70.24;101034.28;5012009;28;20064;-66
2022/03/27 00:07:35;;;;;;;26.55;17.90;;;;;;;6.23;69.99;101030.03;5012306;28;20054;-66
2022/03/27 00:10:00;;;;;;;24.60;17.65;;;;;;;6.15;70.35;101029.28;5012720;28;20038;-63
2022/03/27 00:12:26;;;;;;;25.83;16.15;;;;;;;6.14;70.70;101037.13;5011524;28;20044;-65
2022/03/27 00:14:51;;;;;;;27.90;18.25;;;;;;;6.15;70.58;101041.47;5011963;28;20485;-63
2022/03/27 00:17:18;;;;;;;27.83;17.40;;;;;;;6.14;70.50;101039.75;5012118;28;20486;-65
2022/03/27 00:19:43;;;;;;;25.08;17.58;;;;;;;6.13;71.09;101038.91;5011919;28;20038;-65
2022/03/27 00:22:09;;;;;;;27.67;17.13;;;;;;;6.11;70.63;101031.94;5010773;28;20867;-65
2022/03/27 00:24:34;;;;;;;29.23;17.30;;;;;;;6.08;70.67;101029.34;5025974;28;20079;-65
2022/03/27 00:26:59;;;;;;;26.42;18.15;;;;;;;6.03;71.03;101032.03;5012871;28;20030;-63
2022/03/27 00:29:25;;;;;;;31.30;20.25;;;;;;;6.00;70.86;101032.03;5013335;28;20127;-65
2022/03/27 00:31:50;;;;;;;29.38;17.20;;;;;;;5.93;71.33;101028.59;5012485;28;20429;-65
2022/03/27 00:34:18;;;;;;;28.42;17.30;;;;;;;5.93;71.15;101027.72;5012047;28;20030;-65
2022/03/27 00:36:45;;;;;;;30.08;18.52;;;;;;;5.91;71.15;101026.88;5011394;28;20041;-63
2022/03/27 00:39:10;;;;;;;26.23;16.67;;;;;;;5.90;71.19;101023.38;5011143;28;20045;-65
2022/03/27 00:41:36;;;;;;;28.15;17.70;;;;;;;5.90;71.45;101025.13;5010361;28;20042;-66
2022/03/27 00:44:02;;;;;;;27.38;15.98;;;;;;;5.90;71.44;101025.13;5010872;28;20072;-65
2022/03/27 00:46:27;;;;;;;27.70;20.65;;;;;;;5.80;71.64;101030.44;5010955;28;20617;-65
2022/03/27 00:48:54;;;;;;;39.13;19.27;;;;;;;5.71;71.65;101027.94;5011002;28;20041;-66
2022/03/27 00:51:19;;;;;;;28.40;17.02;;;;;;;5.70;71.53;101023.56;5007757;28;20125;-65
2022/03/27 00:53:45;;;;;;;26.58;19.30;;;;;;;5.69;72.04;101018.38;5010993;28;20160;-65
2022/03/27 00:56:10;;;;;;;35.78;20.77;;;;;;;5.69;71.89;101021.84;5010677;28;20722;-64
2022/03/27 00:58:36;;;;;;;26.30;17.60;;;;;;;5.71;71.57;101019.19;4992189;28;20042;-62
2022/03/27 01:01:01;;;;;;;24.58;20.05;;;;;;;5.70;72.16;101022.72;4985038;28;20049;-65
2022/03/27 01:03:27;;;;;;;27.02;18.92;;;;;;;5.67;71.98;101025.34;4991168;28;20038;-65
2022/03/27 01:05:57;;;;;;;26.13;18.80;;;;;;;5.65;72.06;101019.28;4996810;28;20061;-64
2022/03/27 01:11:13;;;;;;;27.90;18.42;;;;;;;5.63;72.24;101011.41;4992284;28;20045;-65
2022/03/27 01:13:42;;;;;;;32.00;20.00;;;;;;;5.64;72.06;101013.19;4997740;28;20046;-66
2022/03/27 01:16:14;;;;;;;33.55;20.70;;;;;;;5.60;72.38;101006.22;5011603;28;20042;-65
2022/03/27 01:18:40;;;;;;;28.67;19.77;;;;;;;5.61;72.55;101005.34;5011695;28;20037;-65
2022/03/27 01:21:08;;;;;;;26.80;18.15;;;;;;;5.61;72.61;101002.72;5010421;28;20034;-64
2022/03/27 01:23:34;;;;;;;31.30;20.27;;;;;;;5.62;72.05;101004.47;5010955;28;20034;-66
2022/03/27 01:25:59;;;;;;;31.67;19.55;;;;;;;5.58;72.40;101002.75;5011163;28;20026;-65
2022/03/27 01:28:25;;;;;;;28.80;20.00;;;;;;;5.53;72.71;101004.53;5011155;28;20038;-65
2022/03/27 01:30:50;;;;;;;29.45;19.10;;;;;;;5.48;72.89;101004.59;5011099;28;20096;-64
2022/03/27 01:33:15;;;;;;;29.88;19.67;;;;;;;5.44;72.74;100999.38;5009127;28;20029;-66
2022/03/27 01:35:41;;;;;;;30.30;19.40;;;;;;;5.41;73.14;101005.50;5009513;28;20038;-65
2022/03/27 01:38:06;;;;;;;27.15;18.90;;;;;;;5.41;73.56;100999.41;5011471;28;20038;-65
2022/03/27 01:40:31;;;;;;;33.78;18.63;;;;;;;5.42;72.97;100993.31;5010560;28;20045;-66
2022/03/27 01:42:57;;;;;;;36.92;19.60;;;;;;;5.40;73.33;100997.69;5010234;28;20120;-65
2022/03/27 01:45:23;;;;;;;31.77;20.83;;;;;;;5.37;73.23;100991.59;5010744;28;20034;-66
2022/03/27 01:47:48;;;;;;;27.35;17.58;;;;;;;5.41;73.14;100988.97;5010871;28;20030;-66
2022/03/27 01:50:14;;;;;;;36.72;20.98;;;;;;;5.36;73.42;100992.47;5011025;28;20038;-65
2022/03/27 01:52:39;;;;;;;28.70;17.52;;;;;;;5.34;73.58;100986.41;5012596;28;20037;-65
2022/03/27 01:55:10;;;;;;;23.55;17.52;;;;;;;5.31;73.27;100978.56;5011820;28;20066;-65
2022/03/27 01:57:36;;;;;;;31.02;18.45;;;;;;;5.33;73.07;100992.50;5010869;28;20042;-65
2022/03/27 02:00:04;;;;;;;31.50;19.90;;;;;;;5.32;72.84;100985.56;5009410;28;20545;-65
2022/03/27 02:02:29;;;;;;;33.30;21.20;;;;;;;5.25;73.26;100989.09;5011942;28;20053;-64
2022/03/27 02:04:55;;;;;;;30.48;19.48;;;;;;;5.21;73.87;100987.38;5018627;28;20088;-65
2022/03/27 02:07:23;;;;;;;27.08;17.58;;;;;;;5.22;73.89;100994.34;5015987;28;20122;-64
2022/03/27 02:09:49;;;;;;;31.73;20.08;;;;;;;5.25;73.40;100988.25;5012694;28;20045;-64
2022/03/27 02:12:14;;;;;;;30.05;20.17;;;;;;;5.24;73.51;100995.22;5012673;28;20026;-64
2022/03/27 02:14:40;;;;;;;31.42;20.45;;;;;;;5.23;73.95;100983.00;5012227;28;20036;-65
2022/03/27 02:17:07;;;;;;;32.53;19.05;;;;;;;5.23;73.52;100990.00;5013081;28;20109;-65
2022/03/27 02:19:33;;;;;;;32.45;19.92;;;;;;;5.20;74.15;100980.44;5013290;28;20573;-65
2022/03/27 02:21:58;;;;;;;34.83;20.80;;;;;;;5.20;73.88;100988.28;5014081;28;20062;-65
2022/03/27 02:24:23;;;;;;;28.48;19.08;;;;;;;5.14;74.49;100989.19;5013160;28;20057;-64
2022/03/27 02:26:50;;;;;;;30.25;19.92;;;;;;;5.08;74.69;100985.75;5013438;28;20092;-65
2022/03/27 02:29:16;;;;;;;29.02;18.95;;;;;;;5.05;74.42;100980.56;5014263;28;20038;-65
2022/03/27 02:31:42;;;;;;;34.67;19.30;;;;;;;5.01;74.81;100984.06;5014303;28;20034;-65
2022/03/27 02:34:08;;;;;;;34.55;21.13;;;;;;;4.98;74.85;100982.34;5015855;28;20396;-65
2022/03/27 02:36:33;;;;;;;28.35;18.48;;;;;;;4.97;74.73;100983.19;5014084;28;20121;-65
2022/03/27 02:38:58;;;;;;;32.05;21.00;;;;;;;5.00;75.24;100982.34;5012437;28;20034;-65
2022/03/27 02:41:24;;;;;;;29.08;19.50;;;;;;;4.97;74.79;100982.31;5014791;28;20025;-64
2022/03/27 02:43:49;;;;;;;32.33;20.02;;;;;;;4.99;74.76;100985.81;5014839;28;20029;-64
2022/03/27 02:46:14;;;;;;;29.00;18.67;;;;;;;5.01;75.04;100978.81;5015095;28;20041;-64
2022/03/27 02:48:39;;;;;;;34.35;21.23;;;;;;;5.00;74.78;100983.19;5012214;28;20074;-65
2022/03/27 02:51:05;;;;;;;29.85;20.75;;;;;;;4.98;74.64;100984.09;5014207;28;20045;-64
2022/03/27 02:53:30;;;;;;;30.30;21.20;;;;;;;4.91;74.81;100981.50;5014614;28;20064;-65
2022/03/27 02:55:56;;;;;;;35.08;20.80;;;;;;;4.89;74.84;100977.16;5014109;28;20034;-65
2022/03/27 02:58:21;;;;;;;33.63;22.30;;;;;;;4.85;75.36;100975.44;5014126;28;20179;-65
2022/03/27 03:00:46;;;;;;;30.05;20.27;;;;;;;4.83;75.81;100979.81;5013984;28;20026;-63
2022/03/27 03:03:15;;;;;;;31.65;21.60;;;;;;;4.83;75.54;100978.06;5013232;28;20508;-64
2022/03/27 03:05:42;;;;;;;32.08;22.17;;;;;;;4.82;75.90;100972.84;5013821;28;20065;-64
2022/03/27 03:08:11;;;;;;;35.50;21.25;;;;;;;4.84;75.77;100977.19;5013689;28;20029;-63
2022/03/27 03:10:40;;;;;;;41.30;22.05;;;;;;;4.85;75.82;100973.72;5012894;28;20171;-63
2022/03/27 03:13:08;;;;;;;31.33;20.73;;;;;;;4.81;75.81;100973.75;4993947;28;20035;-64
2022/03/27 03:15:38;;;;;;;32.47;22.13;;;;;;;4.79;75.78;100973.75;4994029;28;20100;-64
2022/03/27 03:18:05;;;;;;;33.47;21.42;;;;;;;4.78;76.18;100971.16;4993894;28;20035;-63
2022/03/27 03:20:31;;;;;;;35.25;22.60;;;;;;;4.76;75.73;100967.69;4995043;28;20042;-65
2022/03/27 03:22:57;;;;;;;40.95;25.23;;;;;;;4.75;76.37;100966.81;4994909;28;20490;-64
2022/03/27 03:25:23;;;;;;;29.13;21.10;;;;;;;4.76;76.40;100965.06;4994451;28;20043;-64
2022/03/27 03:27:48;;;;;;;34.67;20.30;;;;;;;4.77;76.06;100975.50;4993757;28;20041;-64
2022/03/27 03:30:14;;;;;;;37.45;21.98;;;;;;;4.77;75.97;100964.19;4993320;28;20042;-65
2022/03/27 03:32:39;;;;;;;39.15;23.75;;;;;;;4.72;76.55;100969.44;4993495;28;20034;-65
2022/03/27 03:35:05;;;;;;;32.65;21.08;;;;;;;4.71;75.88;100965.09;4994097;28;20118;-64
2022/03/27 03:37:31;;;;;;;32.35;21.92;;;;;;;4.71;76.64;100965.94;4993086;28;20038;-65
2022/03/27 03:39:56;;;;;;;36.22;24.67;;;;;;;4.77;76.38;100965.03;4993472;28;20034;-65
2022/03/27 03:42:22;;;;;;;35.25;20.55;;;;;;;4.78;75.87;100963.31;4993217;28;20588;-64
2022/03/27 03:44:47;;;;;;;33.30;22.38;;;;;;;4.79;75.86;100962.44;4993785;28;20034;-65
2022/03/27 03:47:13;;;;;;;36.10;22.70;;;;;;;4.80;75.96;100965.03;4995909;28;20026;-65
2022/03/27 03:49:39;;;;;;;30.83;21.50;;;;;;;4.80;76.49;100961.53;4993717;28;20566;-64
2022/03/27 03:52:06;;;;;;;33.03;22.85;;;;;;;4.79;76.28;100962.44;4992393;28;20038;-65
2022/03/27 03:54:32;;;;;;;34.10;22.00;;;;;;;4.83;76.17;100964.16;4993395;28;20115;-66
2022/03/27 03:56:57;;;;;;;32.50;21.67;;;;;;;4.79;76.00;100965.91;4992611;28;20586;-65
2022/03/27 03:59:22;;;;;;;32.47;20.90;;;;;;;4.76;76.40;100963.31;4993365;28;20454;-65
2022/03/27 04:01:48;;;;;;;39.83;24.02;;;;;;;4.81;76.07;100973.75;4992389;28;20544;-65
2022/03/27 04:04:13;;;;;;;37.05;24.67;;;;;;;4.81;76.15;100971.13;4992844;28;20575;-65
2022/03/27 04:06:38;;;;;;;34.67;21.30;;;;;;;4.78;76.60;100969.41;4992699;28;20113;-65
2022/03/27 04:09:04;;;;;;;36.53;25.27;;;;;;;4.76;76.20;100965.06;4992088;28;20169;-66
2022/03/27 04:11:29;;;;;;;37.88;22.17;;;;;;;4.64;76.18;100961.63;4991365;28;20066;-66
2022/03/27 04:13:54;;;;;;;38.97;25.08;;;;;;;4.58;77.47;100966.91;4991952;28;20050;-66
2022/03/27 04:16:20;;;;;;;36.97;23.45;;;;;;;4.46;77.32;100967.84;4992310;28;20030;-69
2022/03/27 04:18:47;;;;;;;36.72;21.40;;;;;;;4.45;77.47;100960.00;4991996;28;20054;-66
2022/03/27 04:21:12;;;;;;;37.72;25.50;;;;;;;4.45;77.49;100970.44;4991537;28;20092;-65
2022/03/27 04:23:37;;;;;;;35.33;24.42;;;;;;;4.45;77.56;100963.47;4992692;28;20492;-66
2022/03/27 04:26:03;;;;;;;33.03;20.90;;;;;;;4.44;77.74;100963.50;4991822;28;20038;-66
2022/03/27 04:28:29;;;;;;;36.90;24.30;;;;;;;4.44;78.41;100969.59;4991629;28;20038;-65
2022/03/27 04:30:54;;;;;;;35.53;23.00;;;;;;;4.45;77.65;100968.69;4991807;28;20089;-66
2022/03/27 04:33:19;;;;;;;38.17;23.20;;;;;;;4.46;77.92;100970.44;4999952;28;20581;-66
2022/03/27 04:35:45;;;;;;;37.53;24.42;;;;;;;4.47;77.95;100973.94;5011098;28;20033;-65
2022/03/27 04:38:11;;;;;;;36.75;23.15;;;;;;;4.49;78.09;100973.03;5011529;28;20053;-64
2022/03/27 04:40:36;;;;;;;43.13;24.25;;;;;;;4.47;77.74;100969.56;5011317;28;20490;-66
2022/03/27 04:43:02;;;;;;;36.25;24.80;;;;;;;4.41;77.90;100974.84;5010872;28;20036;-66
2022/03/27 04:45:27;;;;;;;38.63;23.40;;;;;;;4.41;78.27;100971.38;5011010;28;20064;-65
2022/03/27 04:47:53;;;;;;;39.05;24.52;;;;;;;4.42;78.28;100968.72;5011261;28;20100;-65
2022/03/27 04:50:18;;;;;;;36.70;25.70;;;;;;;4.41;78.48;100974.84;5010748;28;20575;-65
2022/03/27 04:52:43;;;;;;;40.03;24.52;;;;;;;4.36;78.28;100971.38;5006176;28;20033;-65
2022/03/27 04:55:09;;;;;;;33.72;23.27;;;;;;;4.34;78.26;100972.25;5011356;28;20034;-65
2022/03/27 04:57:39;;;;;;;38.28;24.02;;;;;;;4.30;77.51;100963.56;5010818;28;20034;-65
2022/03/27 05:00:10;;;;;;;37.35;24.35;;;;;;;4.29;78.25;100967.06;5010650;28;20037;-65
2022/03/27 05:02:36;;;;;;;40.75;25.60;;;;;;;4.29;78.44;100967.06;5007592;28;20040;-65
2022/03/27 05:05:04;;;;;;;36.72;24.85;;;;;;;4.30;77.97;100974.00;5010210;28;20036;-63
2022/03/27 05:07:29;;;;;;;36.22;22.88;;;;;;;4.29;78.23;100969.66;5010019;28;20030;-64
2022/03/27 05:09:54;;;;;;;44.90;27.60;;;;;;;4.29;78.05;100961.84;5011431;28;20398;-65
2022/03/27 05:12:20;;;;;;;47.60;26.30;;;;;;;4.30;78.66;100976.59;5010412;28;20065;-63
2022/03/27 05:14:45;;;;;;;40.58;25.45;;;;;;;4.35;78.33;100977.47;5010577;28;20042;-65
2022/03/27 05:17:11;;;;;;;38.85;25.58;;;;;;;4.38;78.40;100967.03;5009187;28;20038;-65
2022/03/27 05:19:36;;;;;;;37.97;26.48;;;;;;;4.40;78.45;100972.22;5010853;28;20030;-64
2022/03/27 05:22:01;;;;;;;39.40;25.90;;;;;;;4.39;78.53;100979.19;5018317;28;20033;-65
2022/03/27 05:24:28;;;;;;;37.05;23.98;;;;;;;4.40;78.50;100980.91;5029021;28;20040;-65
2022/03/27 05:26:54;;;;;;;49.42;28.50;;;;;;;4.45;79.17;100975.66;5029879;28;20037;-65
2022/03/27 05:29:19;;;;;;;34.65;23.38;;;;;;;4.42;78.91;100979.16;5030137;28;20059;-65
2022/03/27 05:31:45;;;;;;;43.72;27.40;;;;;;;4.41;78.97;100987.88;5029322;28;20036;-67
2022/03/27 05:34:10;;;;;;;42.78;26.00;;;;;;;4.40;78.68;100990.50;5028226;28;20037;-64
2022/03/27 05:36:36;;;;;;;40.15;24.23;;;;;;;4.39;78.83;100988.78;5010205;28;20026;-64
2022/03/27 05:39:02;;;;;;;34.70;24.60;;;;;;;4.40;79.04;100996.56;5008979;28;20034;-64
2022/03/27 05:41:28;;;;;;;47.00;27.77;;;;;;;4.41;78.98;100995.72;5009553;28;20070;-63
2022/03/27 05:43:53;;;;;;;43.53;27.77;;;;;;;4.42;79.31;100999.19;5010092;28;20060;-63
2022/03/27 05:46:18;;;;;;;41.70;26.23;;;;;;;4.45;79.47;100999.16;5010149;28;20030;-62
2022/03/27 05:48:44;;;;;;;41.65;26.88;;;;;;;4.47;78.60;101005.25;5010009;28;20459;-62
2022/03/27 05:51:09;;;;;;;51.33;28.63;;;;;;;4.47;78.92;101006.13;5010040;28;20076;-62
2022/03/27 05:53:34;;;;;;;46.30;27.15;;;;;;;4.48;78.91;101004.41;5009955;28;20033;-64
2022/03/27 05:56:00;;;;;;;38.97;23.58;;;;;;;4.51;78.88;101005.25;5009967;28;20125;-64
2022/03/27 05:58:25;;;;;;;41.80;26.33;;;;;;;4.56;78.47;101017.41;5009921;28;20053;-64
2022/03/27 06:00:52;;;;;;;36.60;24.20;;;;;;;4.63;78.58;101013.91;5009841;28;20045;-64
2022/03/27 06:03:17;;;;;;;40.22;25.55;;;;;;;4.67;78.29;101019.06;5009837;28;20064;-64
2022/03/27 06:05:42;;;;;;;44.17;24.15;;;;;;;4.73;78.32;101023.44;5007438;28;20054;-64
2022/03/27 06:08:09;;;;;;;37.55;25.30;;;;;;;4.78;78.97;101020.78;5010198;28;20541;-64
2022/03/27 06:10:35;;;;;;;31.23;23.67;;;;;;;4.88;78.38;101023.31;5009583;28;20487;-64
2022/03/27 06:13:03;;;;;;;42.00;25.58;;;;;;;4.95;77.43;101032.00;5009703;28;20156;-64
2022/03/27 06:15:30;;;;;;;42.28;26.40;;;;;;;5.03;77.84;101022.38;5013949;28;20057;-65
2022/03/27 06:17:56;;;;;;;38.05;24.52;;;;;;;5.11;77.63;101024.94;5014167;28;20038;-64
2022/03/27 06:20:27;;;;;;;41.75;27.58;;;;;;;5.19;76.79;101033.56;5014022;28;20038;-65
2022/03/27 06:22:53;;;;;;;39.90;25.38;;;;;;;5.28;77.73;101028.28;5013363;28;20025;-64
2022/03/27 06:25:21;;;;;;;39.42;24.60;;;;;;;5.43;77.21;101034.28;5014229;28;20037;-64
2022/03/27 06:27:48;;;;;;;36.88;24.65;;;;;;;5.55;77.26;101032.41;5013684;28;20482;-63
2022/03/27 06:30:16;;;;;;;34.13;23.65;;;;;;;5.65;76.51;101035.81;5014276;28;20042;-64
2022/03/27 06:32:42;;;;;;;44.60;26.70;;;;;;;5.74;76.78;101034.88;5014376;28;20393;-65
2022/03/27 06:35:09;;;;;;;37.75;25.40;;;;;;;5.82;76.29;101039.16;5015316;28;20034;-65
2022/03/27 06:37:35;;;;;;;43.05;24.63;;;;;;;5.92;76.76;101039.06;5014223;28;20037;-65
2022/03/27 06:40:01;;;;;;;44.10;25.02;;;;;;;6.04;76.10;101040.75;5013408;28;20184;-64
2022/03/27 06:42:26;;;;;;;35.30;21.85;;;;;;;6.16;76.16;101041.47;5011877;28;20038;-64
2022/03/27 06:44:53;;;;;;;36.85;23.90;;;;;;;6.29;76.18;101036.09;4996659;28;20042;-64
2022/03/27 06:47:19;;;;;;;33.35;23.20;;;;;;;6.43;75.65;101042.91;4994246;28;20027;-64
2022/03/27 06:49:45;;;;;;;32.65;23.48;;;;;;;6.56;75.26;101041.00;4994191;28;20031;-63
2022/03/27 06:52:11;;;;;;;41.35;25.52;;;;;;;6.73;75.13;101040.78;5008792;28;20511;-65
2022/03/27 06:54:37;;;;;;;40.80;26.05;;;;;;;6.85;74.48;101045.00;5013835;28;20037;-65
2022/03/27 06:57:03;;;;;;;30.17;22.38;;;;;;;6.97;75.19;101038.72;5013230;28;20034;-65
2022/03/27 07:03:01;;;;;;;39.58;23.40;;;;;;;7.16;76.77;101032.31;5013157;28;20041;-65
2022/03/27 07:04:58;;;;;;;68.90;29.55;;;;;;;7.48;82.61;101031.81;5012931;28;20083;-65
2022/03/27 07:07:23;;;;;;;82.13;32.15;;;;;;;7.59;83.40;101038.63;5012999;28;20592;-66
2022/03/27 07:09:49;;;;;;;48.45;29.02;;;;;;;7.71;83.87;101033.19;5011666;28;20042;-65
2022/03/27 07:12:14;;;;;;;59.67;33.95;;;;;;;7.73;83.72;101034.03;5009960;28;20038;-65
2022/03/27 07:14:39;;;;;;;101.90;33.28;;;;;;;7.76;83.93;101040.97;5012917;28;20041;-65
2022/03/27 07:17:05;;;;;;;62.50;35.40;;;;;;;7.84;84.09;101032.06;5014186;28;20477;-65
2022/03/27 07:19:30;;;;;;;177.60;39.70;;;;;;;7.71;84.06;101036.66;5014650;28;20058;-64
2022/03/27 07:21:56;;;;;;;96.72;37.42;;;;;;;7.61;85.92;101032.47;5015259;28;20033;-65
2022/03/27 07:24:21;;;;;;;72.13;35.03;;;;;;;7.58;86.36;101027.28;5014185;28;20517;-65
2022/03/27 07:26:46;;;;;;;71.18;37.05;;;;;;;7.66;86.68;101033.25;5012816;28;20034;-65
2022/03/27 07:29:12;;;;;;;130.70;43.08;;;;;;;7.60;86.46;101032.47;5014409;28;20113;-65
2022/03/27 07:31:38;;;;;;;123.63;39.83;;;;;;;7.58;87.03;101031.63;5013049;28;20054;-65
2022/03/27 07:34:03;;;;;;;145.98;41.30;;;;;;;7.59;86.69;101025.50;5011648;28;20508;-65
2022/03/27 07:36:30;;;;;;;69.95;33.33;;;;;;;7.71;88.40;101030.56;5007145;28;20072;-65
2022/03/27 07:38:56;;;;;;;64.32;38.15;;;;;;;7.83;87.00;101027.72;5008778;28;20144;-65
2022/03/27 07:41:21;;;;;;;52.97;32.65;;;;;;;7.91;87.19;101025.81;5007876;28;20498;-65
2022/03/27 07:43:46;;;;;;;89.57;36.03;;;;;;;7.98;86.39;101036.22;5003409;28;20039;-65
2022/03/27 07:46:12;;;;;;;56.90;30.45;;;;;;;8.00;85.59;101035.28;5004257;28;20038;-65
2022/03/27 07:48:37;;;;;;;52.72;31.40;;;;;;;8.05;85.36;101037.81;5011319;28;20113;-65
2022/03/27 07:51:04;;;;;;;55.15;30.17;;;;;;;8.04;85.45;101041.34;5010163;28;20077;-65
2022/03/27 07:53:29;;;;;;;68.82;32.83;;;;;;;8.07;85.60;101038.66;5006576;28;20065;-64
2022/03/27 07:55:55;;;;;;;61.60;31.10;;;;;;;8.06;85.05;101047.44;5000368;28;20072;-65
2022/03/27 07:58:20;;;;;;;68.80;34.75;;;;;;;8.06;85.84;101048.28;5004846;28;20146;-65
2022/03/27 08:00:46;;;;;;;50.35;30.45;;;;;;;8.15;85.86;101042.88;4998809;28;20037;-67
2022/03/27 08:03:11;;;;;;;64.43;33.95;;;;;;;8.18;85.46;101042.81;5002743;28;20042;-66
2022/03/27 08:05:36;;;;;;;66.15;34.28;;;;;;;8.30;85.35;101039.06;5005244;28;20058;-66
2022/03/27 08:08:02;;;;;;;47.75;29.67;;;;;;;8.39;85.55;101045.91;5007314;28;20577;-65
2022/03/27 08:10:27;;;;;;;66.30;33.90;;;;;;;8.37;85.11;101040.69;5006818;28;20076;-66
2022/03/27 08:12:53;;;;;;;62.00;36.25;;;;;;;8.46;85.38;101039.66;5000492;28;20038;-65
2022/03/27 08:15:19;;;;;;;85.80;38.42;;;;;;;8.55;84.50;101039.47;5010450;28;20400;-65
2022/03/27 08:17:44;;;;;;;56.30;35.42;;;;;;;8.52;85.39;101038.69;5002047;28;20088;-65
2022/03/27 08:20:10;;;;;;;65.82;37.45;;;;;;;8.56;84.81;101035.94;5003383;28;20117;-65
2022/03/27 08:22:35;;;;;;;61.42;37.92;;;;;;;8.60;84.99;101029.72;5001109;28;20489;-65
2022/03/27 08:25:01;;;;;;;62.85;37.80;;;;;;;8.76;84.32;101032.03;5008456;28;20034;-65
2022/03/27 08:27:27;;;;;;;76.90;41.15;;;;;;;8.76;83.76;101032.03;5006660;28;20039;-64
2022/03/27 08:29:52;;;;;;;64.10;39.92;;;;;;;8.82;83.96;101027.50;5012409;28;20497;-65
2022/03/27 08:32:18;;;;;;;67.63;41.60;;;;;;;8.94;84.02;101029.00;5010140;28;20644;-65
2022/03/27 08:34:46;;;;;;;65.75;38.38;;;;;;;9.01;83.10;101027.09;5014161;28;20172;-65
2022/03/27 08:37:13;;;;;;;65.90;38.33;;;;;;;9.07;83.03;101034.84;5011033;28;20037;-65
2022/03/27 08:39:41;;;;;;;71.30;40.72;;;;;;;9.15;83.08;101032.88;5012560;28;20053;-64
2022/03/27 08:42:07;;;;;;;66.88;38.70;;;;;;;9.28;82.58;101040.50;5014373;28;20026;-65
2022/03/27 08:44:37;;;;;;;83.45;44.83;;;;;;;9.29;82.05;101043.09;5010216;28;20088;-63
2022/03/27 08:47:09;;;;;;;65.43;41.75;;;;;;;9.18;82.56;101038.09;4997478;28;20038;-65
2022/03/27 08:49:56;;;;;;;74.28;43.58;;;;;;;9.24;82.14;101040.56;5011407;28;20038;-64
2022/03/27 08:52:39;;;;;;;85.43;45.28;;;;;;;9.11;82.07;101040.91;5010667;28;20046;-65
2022/03/27 08:55:07;;;;;;;64.78;40.75;;;;;;;9.16;82.59;101042.53;5007406;28;20034;-65
2022/03/27 08:57:45;;;;;;;72.80;42.47;;;;;;;9.23;82.42;101048.53;5021236;28;20045;-65
2022/03/27 09:00:11;;;;;;;66.25;42.20;;;;;;;9.23;82.33;101049.38;5016287;28;20050;-64
2022/03/27 09:02:38;;;;;;;76.78;44.90;;;;;;;9.36;81.62;101044.69;5003284;28;20045;-66
2022/03/27 09:05:03;;;;;;;68.70;42.95;;;;;;;9.43;81.43;101053.31;4995018;28;20115;-66
2022/03/27 09:07:29;;;;;;;57.30;36.15;;;;;;;9.41;81.76;101049.84;5009608;28;20026;-66
2022/03/27 09:09:58;;;;;;;63.72;39.75;;;;;;;9.45;80.95;101048.84;5005579;28;20589;-65
2022/03/27 09:12:24;;;;;;;67.80;36.80;;;;;;;9.46;81.52;101048.81;5006378;28;20050;-66
2022/03/27 09:14:50;;;;;;;64.10;37.05;;;;;;;9.54;80.47;101047.78;5010267;28;20084;-66
2022/03/27 09:17:16;;;;;;;68.25;40.30;;;;;;;9.53;80.68;101046.91;5011175;28;20102;-66
2022/03/27 09:19:46;;;;;;;82.18;38.95;;;;;;;9.45;80.51;101048.84;5011734;28;20121;-66
2022/03/27 09:22:21;;;;;;;57.47;39.15;;;;;;;9.38;81.74;101057.81;5010975;28;20034;-66
2022/03/27 09:24:55;;;;;;;62.58;36.53;;;;;;;9.45;80.86;101047.09;5011280;28;20056;-66
2022/03/27 09:27:32;;;;;;;51.97;34.92;;;;;;;9.70;80.27;101048.25;5011753;28;20084;-66
2022/03/27 09:30:09;;;;;;;57.90;33.05;;;;;;;9.85;79.23;101051.38;5012488;28;20033;-68
2022/03/27 09:32:38;;;;;;;62.80;37.30;;;;;;;9.76;79.44;101050.75;5016144;28;20091;-66
2022/03/27 09:35:16;;;;;;;55.50;36.30;;;;;;;9.81;80.30;101043.59;5016443;28;20068;-65
2022/03/27 09:37:46;;;;;;;53.80;32.47;;;;;;;9.91;79.70;101050.34;5013461;28;20061;-67
2022/03/27 09:40:14;;;;;;;57.60;36.50;;;;;;;9.94;79.51;101052.88;5013999;28;20096;-68
2022/03/27 09:42:40;;;;;;;54.78;35.95;;;;;;;9.95;79.67;101048.50;5015797;28;20029;-68
2022/03/27 09:45:13;;;;;;;49.38;32.55;;;;;;;10.20;78.94;101043.44;5011588;28;20042;-67
2022/03/27 09:47:40;;;;;;;55.28;34.60;;;;;;;10.72;77.46;101042.81;5011043;28;20496;-60
2022/03/27 09:50:06;;;;;;;47.38;33.25;;;;;;;10.90;75.04;101043.19;5010528;28;20038;-60
2022/03/27 09:52:35;;;;;;;67.32;40.53;;;;;;;11.10;73.82;101032.91;5010223;28;20033;-67
2022/03/27 09:55:07;;;;;;;52.92;36.53;;;;;;;11.13;74.40;101038.06;5009957;28;20045;-66
2022/03/27 09:57:37;;;;;;;60.03;37.42;;;;;;;10.89;75.06;101038.81;5009183;28;20034;-66
2022/03/27 10:00:20;;;;;;;52.40;35.40;;;;;;;10.91;75.55;101026.47;5008795;28;20140;-66
2022/03/27 10:02:47;;;;;;;63.08;40.78;;;;;;;11.09;74.88;101025.03;5005470;28;20159;-67
2022/03/27 10:05:16;;;;;;;62.08;39.50;;;;;;;11.43;74.08;101024.78;5009414;28;20116;-66
2022/03/27 10:07:43;;;;;;;50.80;33.22;;;;;;;11.85;72.41;101016.34;5009542;28;20069;-66
2022/03/27 10:10:17;;;;;;;49.72;33.03;;;;;;;12.36;69.75;101012.78;5010299;28;20034;-65
2022/03/27 10:12:45;;;;;;;59.13;38.78;;;;;;;12.75;68.43;101009.56;5009409;28;20037;-64
2022/03/27 10:15:13;;;;;;;60.03;38.95;;;;;;;12.86;67.72;101002.03;5009119;28;20046;-66
2022/03/27 10:17:41;;;;;;;57.85;36.70;;;;;;;12.93;67.48;101005.31;5008383;28;20064;-67
2022/03/27 10:20:10;;;;;;;50.35;36.38;;;;;;;13.15;66.18;101012.41;5006989;28;20133;-64
2022/03/27 10:22:39;;;;;;;51.03;33.70;;;;;;;13.08;66.65;101015.28;5008234;28;20038;-65
2022/03/27 10:25:08;;;;;;;60.50;41.20;;;;;;;12.97;66.18;101009.59;5010020;28;20045;-64
2022/03/27 10:27:36;;;;;;;51.35;36.80;;;;;;;12.91;67.33;101009.81;5008960;28;20048;-65
2022/03/27 10:30:03;;;;;;;49.47;36.17;;;;;;;13.19;66.36;101003.41;5009716;28;20034;-65
2022/03/27 10:32:29;;;;;;;50.15;36.58;;;;;;;13.87;64.03;100997.03;5009545;28;20185;-66
2022/03/27 10:35:04;;;;;;;50.70;34.80;;;;;;;15.38;60.04;101005.97;5010176;28;20145;-66
2022/03/27 10:37:35;;;;;;;47.17;34.80;;;;;;;16.25;56.71;100990.03;5010122;28;20066;-65
2022/03/27 10:40:07;;;;;;;49.70;35.40;;;;;;;16.96;54.00;100997.69;5011030;28;20038;-67
2022/03/27 10:42:59;;;;;;;48.20;35.17;;;;;;;17.67;51.92;100996.25;4992790;28;20042;-66
2022/03/27 10:45:25;;;;;;;47.28;35.80;;;;;;;17.97;50.97;100990.94;4990243;28;20112;-65
2022/03/27 10:48:23;;;;;;;46.03;35.42;;;;;;;17.43;52.27;100987.91;4988797;28;20043;-67
2022/03/27 10:50:53;;;;;;;51.58;39.45;;;;;;;17.26;53.05;100987.09;4988729;28;20221;-65
2022/03/27 10:53:22;;;;;;;47.58;37.58;;;;;;;16.91;53.73;100986.44;4989913;28;20453;-66
2022/03/27 10:55:52;;;;;;;50.17;38.13;;;;;;;16.76;53.96;100982.81;5007493;28;20034;-65
2022/03/27 10:58:40;;;;;;;53.17;41.80;;;;;;;16.39;54.69;100989.28;5009692;28;20045;-64
2022/03/27 11:01:07;;;;;;;54.55;43.58;;;;;;;15.98;56.07;100979.91;5011099;28;20167;-67
2022/03/27 11:03:48;;;;;;;60.67;44.38;;;;;;;15.82;56.79;100971.00;5013585;28;20124;-64
2022/03/27 11:06:28;;;;;;;58.05;40.67;;;;;;;15.70;57.47;100977.81;5003503;28;20038;-66
2022/03/27 11:08:56;;;;;;;53.67;39.95;;;;;;;15.55;58.15;100976.75;5013272;28;20093;-66
2022/03/27 11:11:37;;;;;;;60.17;45.35;;;;;;;15.10;58.69;100986.09;5013379;28;20044;-66
2022/03/27 11:14:03;;;;;;;54.78;41.72;;;;;;;14.44;61.26;100981.22;5013289;28;20034;-66
2022/03/27 11:16:29;;;;;;;55.25;40.33;;;;;;;14.63;61.56;100980.41;5013144;28;20506;-65
2022/03/27 11:18:54;;;;;;;61.80;43.67;;;;;;;14.35;62.40;100976.38;5011888;28;20066;-65
2022/03/27 11:21:26;;;;;;;55.17;41.45;;;;;;;14.43;61.86;100968.06;5012334;28;20037;-65